sensor_id;sensor_type;location;lat;lon;timestamp;temperature;humidity
12977;DHT22;6553;48.412;9.514;2023-03-20T00:01:20;19.30;55.70
12977;DHT22;6553;48.412;9.514;2023-03-20T00:03:49;19.40;55.80
12977;DHT22;6553;48.412;9.514;2023-03-20T00:06:21;19.30;55.70
12977;DHT22;6553;48.412;9.514;2023-03-20T00:08:52;19.30;55.70
12977;DHT22;6553;48.412;9.514;2023-03-20T00:11:30;19.30;55.70
12977;DHT22;6553;48.412;9.514;2023-03-20T00:14:00;19.40;55.70
12977;DHT22;6553;48.412;9.514;2023-03-20T00:16:42;19.30;55.60
12977;DHT22;6553;48.412;9.514;2023-03-20T00:19:27;19.30;55.60
12977;DHT22;6553;48.412;9.514;2023-03-20T00:21:55;19.30;55.60
12977;DHT22;6553;48.412;9.514;2023-03-20T00:24:22;19.30;55.60
12977;DHT22;6553;48.412;9.514;2023-03-20T00:26:49;19.30;55.60
12977;DHT22;6553;48.412;9.514;2023-03-20T00:29:25;19.30;55.50
12977;DHT22;6553;48.412;9.514;2023-03-20T00:31:53;19.30;55.50
12977;DHT22;6553;48.412;9.514;2023-03-20T00:34:23;19.30;55.50
12977;DHT22;6553;48.412;9.514;2023-03-20T00:36:52;19.30;55.50
12977;DHT22;6553;48.412;9.514;2023-03-20T00:39:18;19.30;55.50
12977;DHT22;6553;48.412;9.514;2023-03-20T00:41:53;19.30;55.50
12977;DHT22;6553;48.412;9.514;2023-03-20T00:46:49;19.30;55.40
12977;DHT22;6553;48.412;9.514;2023-03-20T00:49:22;19.30;55.40
12977;DHT22;6553;48.412;9.514;2023-03-20T00:51:51;19.30;55.40
12977;DHT22;6553;48.412;9.514;2023-03-20T00:54:16;19.30;55.40
12977;DHT22;6553;48.412;9.514;2023-03-20T00:56:51;19.30;55.40
12977;DHT22;6553;48.412;9.514;2023-03-20T00:59:23;19.30;55.40
12977;DHT22;6553;48.412;9.514;2023-03-20T01:01:53;19.30;55.40
12977;DHT22;6553;48.412;9.514;2023-03-20T01:04:20;19.30;55.50
12977;DHT22;6553;48.412;9.514;2023-03-20T01:06:46;19.30;55.40
12977;DHT22;6553;48.412;9.514;2023-03-20T01:09:12;19.30;55.40
12977;DHT22;6553;48.412;9.514;2023-03-20T01:11:38;19.30;55.40
12977;DHT22;6553;48.412;9.514;2023-03-20T01:14:12;19.30;55.40
12977;DHT22;6553;48.412;9.514;2023-03-20T01:16:40;19.30;55.40
12977;DHT22;6553;48.412;9.514;2023-03-20T01:19:13;19.30;55.40
12977;DHT22;6553;48.412;9.514;2023-03-20T01:21:40;19.30;55.40
12977;DHT22;6553;48.412;9.514;2023-03-20T01:24:06;19.30;55.40
12977;DHT22;6553;48.412;9.514;2023-03-20T01:26:38;19.30;55.40
12977;DHT22;6553;48.412;9.514;2023-03-20T01:29:19;19.30;55.40
12977;DHT22;6553;48.412;9.514;2023-03-20T01:31:48;19.30;55.40
12977;DHT22;6553;48.412;9.514;2023-03-20T01:34:16;19.30;55.40
12977;DHT22;6553;48.412;9.514;2023-03-20T01:36:54;19.30;55.40
12977;DHT22;6553;48.412;9.514;2023-03-20T01:39:34;19.30;55.40
12977;DHT22;6553;48.412;9.514;2023-03-20T01:42:01;19.30;55.40
12977;DHT22;6553;48.412;9.514;2023-03-20T01:44:32;19.30;55.40
12977;DHT22;6553;48.412;9.514;2023-03-20T01:47:01;19.30;55.40
12977;DHT22;6553;48.412;9.514;2023-03-20T01:52:43;19.30;55.40
12977;DHT22;6553;48.412;9.514;2023-03-20T01:55:10;19.30;55.40
12977;DHT22;6553;48.412;9.514;2023-03-20T01:57:37;19.30;55.40
12977;DHT22;6553;48.412;9.514;2023-03-20T02:00:06;19.30;55.40
12977;DHT22;6553;48.412;9.514;2023-03-20T02:02:45;19.30;55.40
12977;DHT22;6553;48.412;9.514;2023-03-20T02:05:25;19.30;55.40
12977;DHT22;6553;48.412;9.514;2023-03-20T02:10:44;19.30;55.40
12977;DHT22;6553;48.412;9.514;2023-03-20T02:13:20;19.30;55.40
12977;DHT22;6553;48.412;9.514;2023-03-20T02:16:05;19.30;55.40
12977;DHT22;6553;48.412;9.514;2023-03-20T02:18:56;19.30;55.40
12977;DHT22;6553;48.412;9.514;2023-03-20T02:24:31;19.30;55.30
12977;DHT22;6553;48.412;9.514;2023-03-20T02:27:43;19.20;55.30
12977;DHT22;6553;48.412;9.514;2023-03-20T02:36:56;19.20;55.20
12977;DHT22;6553;48.412;9.514;2023-03-20T02:43:18;19.30;55.30
12977;DHT22;6553;48.412;9.514;2023-03-20T02:45:57;19.30;55.30
12977;DHT22;6553;48.412;9.514;2023-03-20T02:49:09;19.20;55.20
12977;DHT22;6553;48.412;9.514;2023-03-20T02:54:50;19.20;55.20
12977;DHT22;6553;48.412;9.514;2023-03-20T02:59:58;19.30;55.20
12977;DHT22;6553;48.412;9.514;2023-03-20T03:02:46;19.20;55.20
12977;DHT22;6553;48.412;9.514;2023-03-20T03:05:20;19.20;55.10
12977;DHT22;6553;48.412;9.514;2023-03-20T03:07:51;19.20;55.20
12977;DHT22;6553;48.412;9.514;2023-03-20T03:10:34;19.20;55.10
12977;DHT22;6553;48.412;9.514;2023-03-20T03:13:10;19.20;55.10
12977;DHT22;6553;48.412;9.514;2023-03-20T03:15:42;19.20;55.10
12977;DHT22;6553;48.412;9.514;2023-03-20T03:18:19;19.20;55.10
12977;DHT22;6553;48.412;9.514;2023-03-20T03:20:50;19.20;55.10
12977;DHT22;6553;48.412;9.514;2023-03-20T03:23:31;19.20;55.10
12977;DHT22;6553;48.412;9.514;2023-03-20T03:26:02;19.20;55.00
12977;DHT22;6553;48.412;9.514;2023-03-20T03:28:42;19.20;55.00
12977;DHT22;6553;48.412;9.514;2023-03-20T03:31:13;19.20;55.00
12977;DHT22;6553;48.412;9.514;2023-03-20T03:33:43;19.20;55.00
12977;DHT22;6553;48.412;9.514;2023-03-20T03:36:37;19.20;55.00
12977;DHT22;6553;48.412;9.514;2023-03-20T03:39:47;19.20;55.00
12977;DHT22;6553;48.412;9.514;2023-03-20T03:45:14;19.20;55.00
12977;DHT22;6553;48.412;9.514;2023-03-20T03:47:55;19.20;55.00
12977;DHT22;6553;48.412;9.514;2023-03-20T03:50:56;19.20;55.00
12977;DHT22;6553;48.412;9.514;2023-03-20T03:53:31;19.20;55.00
12977;DHT22;6553;48.412;9.514;2023-03-20T03:56:04;19.20;54.90
12977;DHT22;6553;48.412;9.514;2023-03-20T03:58:40;19.20;54.90
12977;DHT22;6553;48.412;9.514;2023-03-20T04:01:10;19.20;54.90
12977;DHT22;6553;48.412;9.514;2023-03-20T04:03:45;19.20;55.00
12977;DHT22;6553;48.412;9.514;2023-03-20T04:06:15;19.20;54.90
12977;DHT22;6553;48.412;9.514;2023-03-20T04:08:42;19.20;55.50
12977;DHT22;6553;48.412;9.514;2023-03-20T04:11:15;19.20;55.00
12977;DHT22;6553;48.412;9.514;2023-03-20T04:13:45;19.20;54.90
12977;DHT22;6553;48.412;9.514;2023-03-20T04:16:14;19.20;54.90
12977;DHT22;6553;48.412;9.514;2023-03-20T04:18:42;19.20;55.00
12977;DHT22;6553;48.412;9.514;2023-03-20T04:21:12;19.20;54.90
12977;DHT22;6553;48.412;9.514;2023-03-20T04:23:41;19.20;54.90
12977;DHT22;6553;48.412;9.514;2023-03-20T04:26:07;19.20;54.90
12977;DHT22;6553;48.412;9.514;2023-03-20T04:28:34;19.20;54.90
12977;DHT22;6553;48.412;9.514;2023-03-20T04:31:34;19.20;54.90
12977;DHT22;6553;48.412;9.514;2023-03-20T04:34:15;19.20;54.90
12977;DHT22;6553;48.412;9.514;2023-03-20T04:36:49;19.20;54.80
12977;DHT22;6553;48.412;9.514;2023-03-20T04:39:16;19.20;54.90
12977;DHT22;6553;48.412;9.514;2023-03-20T04:41:42;19.20;54.90
12977;DHT22;6553;48.412;9.514;2023-03-20T04:44:08;19.20;54.90
12977;DHT22;6553;48.412;9.514;2023-03-20T04:46:34;19.20;54.80
12977;DHT22;6553;48.412;9.514;2023-03-20T04:49:03;19.20;54.90
12977;DHT22;6553;48.412;9.514;2023-03-20T04:51:29;19.20;54.90
12977;DHT22;6553;48.412;9.514;2023-03-20T04:53:56;19.20;54.90
12977;DHT22;6553;48.412;9.514;2023-03-20T04:56:22;19.20;54.90
12977;DHT22;6553;48.412;9.514;2023-03-20T04:58:49;19.20;54.90
12977;DHT22;6553;48.412;9.514;2023-03-20T05:01:17;19.20;54.80
12977;DHT22;6553;48.412;9.514;2023-03-20T05:03:43;19.20;54.80
12977;DHT22;6553;48.412;9.514;2023-03-20T05:06:09;19.20;54.80
12977;DHT22;6553;48.412;9.514;2023-03-20T05:08:39;19.20;54.80
12977;DHT22;6553;48.412;9.514;2023-03-20T05:11:05;19.20;54.80
12977;DHT22;6553;48.412;9.514;2023-03-20T05:13:52;19.20;54.80
12977;DHT22;6553;48.412;9.514;2023-03-20T05:16:38;19.20;54.80
12977;DHT22;6553;48.412;9.514;2023-03-20T05:19:24;19.20;54.80
12977;DHT22;6553;48.412;9.514;2023-03-20T05:22:11;19.20;54.80
12977;DHT22;6553;48.412;9.514;2023-03-20T05:24:39;19.20;54.80
12977;DHT22;6553;48.412;9.514;2023-03-20T05:27:23;19.20;54.80
12977;DHT22;6553;48.412;9.514;2023-03-20T05:30:01;19.20;54.80
12977;DHT22;6553;48.412;9.514;2023-03-20T05:32:49;19.20;54.80
12977;DHT22;6553;48.412;9.514;2023-03-20T05:35:25;19.20;54.80
12977;DHT22;6553;48.412;9.514;2023-03-20T05:38:03;19.10;54.70
12977;DHT22;6553;48.412;9.514;2023-03-20T05:40:42;19.10;54.70
12977;DHT22;6553;48.412;9.514;2023-03-20T05:43:18;19.20;54.80
12977;DHT22;6553;48.412;9.514;2023-03-20T05:46:04;19.10;54.70
12977;DHT22;6553;48.412;9.514;2023-03-20T05:48:48;19.20;54.70
12977;DHT22;6553;48.412;9.514;2023-03-20T05:51:27;19.10;54.70
12977;DHT22;6553;48.412;9.514;2023-03-20T05:54:22;19.20;54.70
12977;DHT22;6553;48.412;9.514;2023-03-20T05:57:17;19.20;54.70
12977;DHT22;6553;48.412;9.514;2023-03-20T05:59:58;19.10;54.60
12977;DHT22;6553;48.412;9.514;2023-03-20T06:02:36;19.10;54.60
12977;DHT22;6553;48.412;9.514;2023-03-20T06:05:13;19.20;54.70
12977;DHT22;6553;48.412;9.514;2023-03-20T06:07:46;19.20;54.70
12977;DHT22;6553;48.412;9.514;2023-03-20T06:10:14;19.20;54.70
12977;DHT22;6553;48.412;9.514;2023-03-20T06:12:41;19.20;54.70
12977;DHT22;6553;48.412;9.514;2023-03-20T06:15:07;19.20;54.70
12977;DHT22;6553;48.412;9.514;2023-03-20T06:17:38;19.10;54.60
12977;DHT22;6553;48.412;9.514;2023-03-20T06:20:04;19.10;54.60
12977;DHT22;6553;48.412;9.514;2023-03-20T06:22:30;19.20;55.20
12977;DHT22;6553;48.412;9.514;2023-03-20T06:24:57;19.20;54.60
12977;DHT22;6553;48.412;9.514;2023-03-20T06:27:29;19.10;54.60
12977;DHT22;6553;48.412;9.514;2023-03-20T06:29:55;19.20;54.60
12977;DHT22;6553;48.412;9.514;2023-03-20T06:32:28;19.20;54.60
12977;DHT22;6553;48.412;9.514;2023-03-20T06:34:57;19.20;54.60
12977;DHT22;6553;48.412;9.514;2023-03-20T06:37:23;19.20;54.60
12977;DHT22;6553;48.412;9.514;2023-03-20T06:39:50;19.10;54.60
12977;DHT22;6553;48.412;9.514;2023-03-20T06:42:17;19.10;54.60
12977;DHT22;6553;48.412;9.514;2023-03-20T06:44:45;19.20;54.70
12977;DHT22;6553;48.412;9.514;2023-03-20T06:47:14;19.20;54.60
12977;DHT22;6553;48.412;9.514;2023-03-20T06:49:40;19.20;54.60
12977;DHT22;6553;48.412;9.514;2023-03-20T06:52:07;19.10;54.60
12977;DHT22;6553;48.412;9.514;2023-03-20T06:54:39;19.20;54.70
12977;DHT22;6553;48.412;9.514;2023-03-20T06:57:06;19.20;54.60
12977;DHT22;6553;48.412;9.514;2023-03-20T06:59:32;19.20;54.60
12977;DHT22;6553;48.412;9.514;2023-03-20T07:01:57;19.20;54.70
12977;DHT22;6553;48.412;9.514;2023-03-20T07:04:24;19.20;54.70
12977;DHT22;6553;48.412;9.514;2023-03-20T07:06:53;19.20;54.60
12977;DHT22;6553;48.412;9.514;2023-03-20T07:09:20;19.20;54.60
12977;DHT22;6553;48.412;9.514;2023-03-20T07:11:48;19.20;54.60
12977;DHT22;6553;48.412;9.514;2023-03-20T07:14:14;19.20;54.70
12977;DHT22;6553;48.412;9.514;2023-03-20T07:16:52;19.20;54.60
12977;DHT22;6553;48.412;9.514;2023-03-20T07:19:18;19.20;54.60
12977;DHT22;6553;48.412;9.514;2023-03-20T07:21:48;19.10;54.60
12977;DHT22;6553;48.412;9.514;2023-03-20T07:24:15;19.10;54.60
12977;DHT22;6553;48.412;9.514;2023-03-20T07:26:42;19.20;54.70
12977;DHT22;6553;48.412;9.514;2023-03-20T07:29:08;19.20;54.70
12977;DHT22;6553;48.412;9.514;2023-03-20T07:31:34;19.20;54.70
12977;DHT22;6553;48.412;9.514;2023-03-20T07:34:11;19.20;54.70
12977;DHT22;6553;48.412;9.514;2023-03-20T07:36:39;19.20;54.70
12977;DHT22;6553;48.412;9.514;2023-03-20T07:39:07;19.20;54.70
12977;DHT22;6553;48.412;9.514;2023-03-20T07:41:36;19.20;54.60
12977;DHT22;6553;48.412;9.514;2023-03-20T07:44:05;19.20;54.70
12977;DHT22;6553;48.412;9.514;2023-03-20T07:46:51;19.20;54.70
12977;DHT22;6553;48.412;9.514;2023-03-20T07:49:17;19.20;54.60
12977;DHT22;6553;48.412;9.514;2023-03-20T07:51:45;19.20;54.60
12977;DHT22;6553;48.412;9.514;2023-03-20T07:54:12;19.20;54.60
12977;DHT22;6553;48.412;9.514;2023-03-20T07:56:38;19.20;54.60
12977;DHT22;6553;48.412;9.514;2023-03-20T07:59:04;19.20;54.60
12977;DHT22;6553;48.412;9.514;2023-03-20T08:01:30;19.20;54.60
12977;DHT22;6553;48.412;9.514;2023-03-20T08:03:55;19.20;54.70
12977;DHT22;6553;48.412;9.514;2023-03-20T08:06:21;19.20;54.60
12977;DHT22;6553;48.412;9.514;2023-03-20T08:08:47;19.20;54.60
12977;DHT22;6553;48.412;9.514;2023-03-20T08:11:16;19.20;54.60
12977;DHT22;6553;48.412;9.514;2023-03-20T08:13:42;19.20;54.60
12977;DHT22;6553;48.412;9.514;2023-03-20T08:16:08;19.20;54.60
12977;DHT22;6553;48.412;9.514;2023-03-20T08:18:34;19.20;54.60
12977;DHT22;6553;48.412;9.514;2023-03-20T08:21:00;19.20;54.60
12977;DHT22;6553;48.412;9.514;2023-03-20T08:23:26;19.20;54.70
12977;DHT22;6553;48.412;9.514;2023-03-20T08:25:52;19.20;54.60
12977;DHT22;6553;48.412;9.514;2023-03-20T08:28:22;19.20;54.60
12977;DHT22;6553;48.412;9.514;2023-03-20T08:30:49;19.20;54.60
12977;DHT22;6553;48.412;9.514;2023-03-20T08:33:16;19.20;54.60
12977;DHT22;6553;48.412;9.514;2023-03-20T08:35:43;19.20;54.60
12977;DHT22;6553;48.412;9.514;2023-03-20T08:38:18;19.20;54.60
12977;DHT22;6553;48.412;9.514;2023-03-20T08:40:44;19.20;54.60
12977;DHT22;6553;48.412;9.514;2023-03-20T08:43:10;19.20;54.60
12977;DHT22;6553;48.412;9.514;2023-03-20T08:45:36;19.20;54.60
12977;DHT22;6553;48.412;9.514;2023-03-20T08:48:01;19.20;54.60
12977;DHT22;6553;48.412;9.514;2023-03-20T08:50:28;19.20;54.60
12977;DHT22;6553;48.412;9.514;2023-03-20T08:52:54;19.20;54.60
12977;DHT22;6553;48.412;9.514;2023-03-20T08:55:20;19.20;54.60
12977;DHT22;6553;48.412;9.514;2023-03-20T08:57:46;19.20;54.60
12977;DHT22;6553;48.412;9.514;2023-03-20T09:00:14;19.20;54.60
12977;DHT22;6553;48.412;9.514;2023-03-20T09:02:41;19.30;54.70
12977;DHT22;6553;48.412;9.514;2023-03-20T09:05:08;19.20;54.60
12977;DHT22;6553;48.412;9.514;2023-03-20T09:07:35;19.20;54.60
12977;DHT22;6553;48.412;9.514;2023-03-20T09:10:01;19.20;54.60
12977;DHT22;6553;48.412;9.514;2023-03-20T09:12:28;19.20;54.60
12977;DHT22;6553;48.412;9.514;2023-03-20T09:14:56;19.20;54.60
12977;DHT22;6553;48.412;9.514;2023-03-20T09:17:22;19.20;54.60
12977;DHT22;6553;48.412;9.514;2023-03-20T09:19:47;19.20;54.60
12977;DHT22;6553;48.412;9.514;2023-03-20T09:22:14;19.30;54.60
12977;DHT22;6553;48.412;9.514;2023-03-20T09:24:42;19.30;54.60
12977;DHT22;6553;48.412;9.514;2023-03-20T09:27:08;19.20;54.50
12977;DHT22;6553;48.412;9.514;2023-03-20T09:29:34;19.20;54.50
12977;DHT22;6553;48.412;9.514;2023-03-20T09:32:00;19.30;54.60
12977;DHT22;6553;48.412;9.514;2023-03-20T09:34:26;19.30;54.60
12977;DHT22;6553;48.412;9.514;2023-03-20T09:36:52;19.20;54.50
12977;DHT22;6553;48.412;9.514;2023-03-20T09:39:18;19.20;54.50
12977;DHT22;6553;48.412;9.514;2023-03-20T09:41:47;19.30;54.60
12977;DHT22;6553;48.412;9.514;2023-03-20T09:44:39;19.30;54.60
12977;DHT22;6553;48.412;9.514;2023-03-20T09:47:30;19.20;54.50
12977;DHT22;6553;48.412;9.514;2023-03-20T09:50:14;19.20;54.50
12977;DHT22;6553;48.412;9.514;2023-03-20T09:52:56;19.20;54.40
12977;DHT22;6553;48.412;9.514;2023-03-20T09:55:34;19.30;54.50
12977;DHT22;6553;48.412;9.514;2023-03-20T10:01:03;19.30;54.50
12977;DHT22;6553;48.412;9.514;2023-03-20T10:03:50;19.30;54.50
12977;DHT22;6553;48.412;9.514;2023-03-20T10:06:20;19.20;54.40
12977;DHT22;6553;48.412;9.514;2023-03-20T10:08:46;19.30;54.50
12977;DHT22;6553;48.412;9.514;2023-03-20T10:17:40;19.30;54.40
12977;DHT22;6553;48.412;9.514;2023-03-20T10:22:52;19.30;54.40
12977;DHT22;6553;48.412;9.514;2023-03-20T10:25:30;19.30;54.40
12977;DHT22;6553;48.412;9.514;2023-03-20T10:28:21;19.30;54.30
12977;DHT22;6553;48.412;9.514;2023-03-20T10:33:38;19.30;54.30
12977;DHT22;6553;48.412;9.514;2023-03-20T10:36:41;19.40;54.40
12977;DHT22;6553;48.412;9.514;2023-03-20T10:42:26;19.40;54.30
12977;DHT22;6553;48.412;9.514;2023-03-20T10:45:01;19.30;54.20
12977;DHT22;6553;48.412;9.514;2023-03-20T10:47:35;19.30;54.20
12977;DHT22;6553;48.412;9.514;2023-03-20T10:50:10;19.30;54.20
12977;DHT22;6553;48.412;9.514;2023-03-20T10:52:43;19.30;54.20
12977;DHT22;6553;48.412;9.514;2023-03-20T10:55:26;19.40;54.30
12977;DHT22;6553;48.412;9.514;2023-03-20T10:58:18;19.30;54.20
12977;DHT22;6553;48.412;9.514;2023-03-20T11:00:48;19.30;54.80
12977;DHT22;6553;48.412;9.514;2023-03-20T11:03:28;19.30;54.20
12977;DHT22;6553;48.412;9.514;2023-03-20T11:06:10;19.40;54.30
12977;DHT22;6553;48.412;9.514;2023-03-20T11:08:47;19.30;54.20
12977;DHT22;6553;48.412;9.514;2023-03-20T11:11:21;19.30;54.20
12977;DHT22;6553;48.412;9.514;2023-03-20T11:13:49;19.30;54.10
12977;DHT22;6553;48.412;9.514;2023-03-20T11:16:21;19.30;54.20
12977;DHT22;6553;48.412;9.514;2023-03-20T11:18:50;19.30;54.20
12977;DHT22;6553;48.412;9.514;2023-03-20T11:21:22;19.30;54.10
12977;DHT22;6553;48.412;9.514;2023-03-20T11:23:50;19.30;54.20
12977;DHT22;6553;48.412;9.514;2023-03-20T11:26:25;19.30;54.20
12977;DHT22;6553;48.412;9.514;2023-03-20T11:28:59;19.30;54.10
12977;DHT22;6553;48.412;9.514;2023-03-20T11:31:32;19.30;54.10
12977;DHT22;6553;48.412;9.514;2023-03-20T11:36:30;19.30;54.10
12977;DHT22;6553;48.412;9.514;2023-03-20T11:41:49;19.30;54.10
12977;DHT22;6553;48.412;9.514;2023-03-20T11:47:02;19.30;54.10
12977;DHT22;6553;48.412;9.514;2023-03-20T11:49:31;19.30;54.00
12977;DHT22;6553;48.412;9.514;2023-03-20T11:52:13;19.30;54.00
12977;DHT22;6553;48.412;9.514;2023-03-20T11:54:50;19.30;54.00
12977;DHT22;6553;48.412;9.514;2023-03-20T11:57:37;19.30;54.00
12977;DHT22;6553;48.412;9.514;2023-03-20T12:00:20;19.30;54.00
12977;DHT22;6553;48.412;9.514;2023-03-20T12:02:48;19.30;54.00
12977;DHT22;6553;48.412;9.514;2023-03-20T12:05:28;19.30;54.00
12977;DHT22;6553;48.412;9.514;2023-03-20T12:08:04;19.30;54.00
12977;DHT22;6553;48.412;9.514;2023-03-20T12:10:40;19.30;54.00
12977;DHT22;6553;48.412;9.514;2023-03-20T12:13:19;19.40;54.00
12977;DHT22;6553;48.412;9.514;2023-03-20T12:15:54;19.30;54.00
12977;DHT22;6553;48.412;9.514;2023-03-20T12:18:31;19.30;54.00
12977;DHT22;6553;48.412;9.514;2023-03-20T12:23:52;19.30;54.00
12977;DHT22;6553;48.412;9.514;2023-03-20T12:29:46;19.30;53.90
12977;DHT22;6553;48.412;9.514;2023-03-20T12:35:15;19.30;53.90
12977;DHT22;6553;48.412;9.514;2023-03-20T12:37:43;19.40;54.00
12977;DHT22;6553;48.412;9.514;2023-03-20T12:40:16;19.30;53.90
12977;DHT22;6553;48.412;9.514;2023-03-20T12:43:03;19.40;54.00
12977;DHT22;6553;48.412;9.514;2023-03-20T12:45:39;19.40;54.00
12977;DHT22;6553;48.412;9.514;2023-03-20T12:57:59;19.40;54.00
12977;DHT22;6553;48.412;9.514;2023-03-20T13:03:34;19.40;54.00
12977;DHT22;6553;48.412;9.514;2023-03-20T13:06:37;19.40;54.00
12977;DHT22;6553;48.412;9.514;2023-03-20T13:12:43;19.40;54.00
12977;DHT22;6553;48.412;9.514;2023-03-20T13:18:44;19.40;54.00
12977;DHT22;6553;48.412;9.514;2023-03-20T13:21:30;19.40;54.00
12977;DHT22;6553;48.412;9.514;2023-03-20T13:24:18;19.40;54.10
12977;DHT22;6553;48.412;9.514;2023-03-20T13:38:36;19.40;54.00
12977;DHT22;6553;48.412;9.514;2023-03-20T13:41:07;19.40;54.00
12977;DHT22;6553;48.412;9.514;2023-03-20T13:43:46;19.40;54.00
12977;DHT22;6553;48.412;9.514;2023-03-20T13:48:49;19.50;54.00
12977;DHT22;6553;48.412;9.514;2023-03-20T13:51:33;19.40;54.00
12977;DHT22;6553;48.412;9.514;2023-03-20T14:00:08;19.40;54.00
12977;DHT22;6553;48.412;9.514;2023-03-20T14:05:38;19.50;54.00
12977;DHT22;6553;48.412;9.514;2023-03-20T14:14:13;19.40;54.00
12977;DHT22;6553;48.412;9.514;2023-03-20T14:16:41;19.40;53.90
12977;DHT22;6553;48.412;9.514;2023-03-20T14:19:21;19.50;54.00
12977;DHT22;6553;48.412;9.514;2023-03-20T14:21:52;19.50;53.90
12977;DHT22;6553;48.412;9.514;2023-03-20T14:24:21;19.40;54.00
12977;DHT22;6553;48.412;9.514;2023-03-20T14:26:56;19.40;54.00
12977;DHT22;6553;48.412;9.514;2023-03-20T14:32:20;19.40;54.00
12977;DHT22;6553;48.412;9.514;2023-03-20T14:34:51;19.40;54.00
12977;DHT22;6553;48.412;9.514;2023-03-20T14:40:04;19.40;53.90
12977;DHT22;6553;48.412;9.514;2023-03-20T14:42:58;19.40;53.90
12977;DHT22;6553;48.412;9.514;2023-03-20T14:45:43;19.40;54.00
12977;DHT22;6553;48.412;9.514;2023-03-20T14:51:40;19.40;54.00
12977;DHT22;6553;48.412;9.514;2023-03-20T14:54:29;19.40;54.00
12977;DHT22;6553;48.412;9.514;2023-03-20T14:57:08;19.40;54.00
12977;DHT22;6553;48.412;9.514;2023-03-20T14:59:40;19.50;54.00
12977;DHT22;6553;48.412;9.514;2023-03-20T15:02:24;19.40;54.00
12977;DHT22;6553;48.412;9.514;2023-03-20T15:04:52;19.40;54.00
12977;DHT22;6553;48.412;9.514;2023-03-20T15:07:29;19.40;54.00
12977;DHT22;6553;48.412;9.514;2023-03-20T15:10:01;19.40;54.00
12977;DHT22;6553;48.412;9.514;2023-03-20T15:12:33;19.40;54.00
12977;DHT22;6553;48.412;9.514;2023-03-20T15:15:06;19.40;54.00
12977;DHT22;6553;48.412;9.514;2023-03-20T15:17:47;19.40;54.00
12977;DHT22;6553;48.412;9.514;2023-03-20T15:22:53;19.40;54.00
12977;DHT22;6553;48.412;9.514;2023-03-20T15:25:22;19.40;54.00
12977;DHT22;6553;48.412;9.514;2023-03-20T15:27:52;19.40;54.00
12977;DHT22;6553;48.412;9.514;2023-03-20T15:30:20;19.40;54.00
12977;DHT22;6553;48.412;9.514;2023-03-20T15:32:52;19.40;54.00
12977;DHT22;6553;48.412;9.514;2023-03-20T15:35:21;19.40;54.00
12977;DHT22;6553;48.412;9.514;2023-03-20T15:37:50;19.40;54.00
12977;DHT22;6553;48.412;9.514;2023-03-20T15:40:28;19.30;53.90
12977;DHT22;6553;48.412;9.514;2023-03-20T15:43:00;19.30;54.00
12977;DHT22;6553;48.412;9.514;2023-03-20T15:45:33;19.30;53.90
12977;DHT22;6553;48.412;9.514;2023-03-20T15:48:06;19.30;53.90
12977;DHT22;6553;48.412;9.514;2023-03-20T15:50:37;19.30;53.90
12977;DHT22;6553;48.412;9.514;2023-03-20T15:53:05;19.40;54.10
12977;DHT22;6553;48.412;9.514;2023-03-20T15:55:36;19.40;54.00
12977;DHT22;6553;48.412;9.514;2023-03-20T15:58:03;19.40;54.00
12977;DHT22;6553;48.412;9.514;2023-03-20T16:00:37;19.30;54.00
12977;DHT22;6553;48.412;9.514;2023-03-20T16:03:13;19.30;54.00
12977;DHT22;6553;48.412;9.514;2023-03-20T16:05:44;19.40;54.00
12977;DHT22;6553;48.412;9.514;2023-03-20T16:08:13;19.30;54.00
12977;DHT22;6553;48.412;9.514;2023-03-20T16:10:45;19.30;54.00
12977;DHT22;6553;48.412;9.514;2023-03-20T16:13:12;19.30;54.00
12977;DHT22;6553;48.412;9.514;2023-03-20T16:15:43;19.30;54.00
12977;DHT22;6553;48.412;9.514;2023-03-20T16:18:13;19.30;53.90
12977;DHT22;6553;48.412;9.514;2023-03-20T16:20:51;19.30;54.00
12977;DHT22;6553;48.412;9.514;2023-03-20T16:23:46;19.30;54.00
12977;DHT22;6553;48.412;9.514;2023-03-20T16:26:19;19.30;54.00
12977;DHT22;6553;48.412;9.514;2023-03-20T16:28:50;19.40;54.00
12977;DHT22;6553;48.412;9.514;2023-03-20T16:33:52;19.30;54.00
12977;DHT22;6553;48.412;9.514;2023-03-20T16:36:24;19.40;54.00
12977;DHT22;6553;48.412;9.514;2023-03-20T16:39:08;19.30;54.00
12977;DHT22;6553;48.412;9.514;2023-03-20T16:41:43;19.30;53.90
12977;DHT22;6553;48.412;9.514;2023-03-20T16:44:20;19.30;54.00
12977;DHT22;6553;48.412;9.514;2023-03-20T16:47:00;19.30;54.00
12977;DHT22;6553;48.412;9.514;2023-03-20T16:50:11;19.30;54.00
12977;DHT22;6553;48.412;9.514;2023-03-20T16:52:55;19.40;54.10
12977;DHT22;6553;48.412;9.514;2023-03-20T16:55:30;19.30;54.00
12977;DHT22;6553;48.412;9.514;2023-03-20T16:58:03;19.30;54.00
12977;DHT22;6553;48.412;9.514;2023-03-20T17:00:57;19.40;54.00
12977;DHT22;6553;48.412;9.514;2023-03-20T17:03:56;19.40;54.10
12977;DHT22;6553;48.412;9.514;2023-03-20T17:11:39;19.30;54.00
12977;DHT22;6553;48.412;9.514;2023-03-20T17:14:12;19.30;54.10
12977;DHT22;6553;48.412;9.514;2023-03-20T17:16:38;19.30;54.10
12977;DHT22;6553;48.412;9.514;2023-03-20T17:19:09;19.30;54.10
12977;DHT22;6553;48.412;9.514;2023-03-20T17:21:39;19.30;54.10
12977;DHT22;6553;48.412;9.514;2023-03-20T17:24:05;19.30;54.10
12977;DHT22;6553;48.412;9.514;2023-03-20T17:26:31;19.30;54.70
12977;DHT22;6553;48.412;9.514;2023-03-20T17:28:57;19.30;54.10
12977;DHT22;6553;48.412;9.514;2023-03-20T17:31:23;19.30;54.10
12977;DHT22;6553;48.412;9.514;2023-03-20T17:33:49;19.30;54.10
12977;DHT22;6553;48.412;9.514;2023-03-20T17:36:22;19.30;54.10
12977;DHT22;6553;48.412;9.514;2023-03-20T17:38:50;19.30;54.10
12977;DHT22;6553;48.412;9.514;2023-03-20T17:41:17;19.30;54.10
12977;DHT22;6553;48.412;9.514;2023-03-20T17:43:44;19.20;54.00
12977;DHT22;6553;48.412;9.514;2023-03-20T17:46:40;19.30;54.10
12977;DHT22;6553;48.412;9.514;2023-03-20T17:49:11;19.30;54.10
12977;DHT22;6553;48.412;9.514;2023-03-20T17:51:39;19.30;54.10
12977;DHT22;6553;48.412;9.514;2023-03-20T17:54:05;19.30;54.70
12977;DHT22;6553;48.412;9.514;2023-03-20T17:56:31;19.30;54.10
12977;DHT22;6553;48.412;9.514;2023-03-20T17:58:58;19.30;54.10
12977;DHT22;6553;48.412;9.514;2023-03-20T18:01:24;19.20;54.00
12977;DHT22;6553;48.412;9.514;2023-03-20T18:03:51;19.20;54.00
12977;DHT22;6553;48.412;9.514;2023-03-20T18:06:25;19.20;54.00
12977;DHT22;6553;48.412;9.514;2023-03-20T18:08:53;19.30;54.10
12977;DHT22;6553;48.412;9.514;2023-03-20T18:11:20;19.30;54.10
12977;DHT22;6553;48.412;9.514;2023-03-20T18:13:46;19.20;54.00
12977;DHT22;6553;48.412;9.514;2023-03-20T18:16:23;19.20;54.00
12977;DHT22;6553;48.412;9.514;2023-03-20T18:18:51;19.20;54.00
12977;DHT22;6553;48.412;9.514;2023-03-20T18:21:18;19.20;54.10
12977;DHT22;6553;48.412;9.514;2023-03-20T18:23:44;19.20;54.10
12977;DHT22;6553;48.412;9.514;2023-03-20T18:26:17;19.20;54.10
12977;DHT22;6553;48.412;9.514;2023-03-20T18:28:45;19.30;54.20
12977;DHT22;6553;48.412;9.514;2023-03-20T18:31:13;19.20;54.10
12977;DHT22;6553;48.412;9.514;2023-03-20T18:33:44;19.20;54.00
12977;DHT22;6553;48.412;9.514;2023-03-20T18:36:15;19.20;54.00